Time;durP1;ratioP1;P1;durP2;ratioP2;P2;SDS_P1;SDS_P2;PMS_P1;PMS_P2;Temp;Humidity;BMP_temperature;BMP_pressure;BME280_temperature;BME280_humidity;BME280_pressure;Samples;Min_cycle;Max_cycle;Signal;HPM_P1;HPM_P2
2022/10/30 00:01:16;;;;;;;22.92;10.98;;;15.10;99.90;;;;;;5026387;28;20037;-72
2022/10/30 00:03:42;;;;;;;24.42;10.07;;;15.00;99.90;;;;;;5026000;28;20042;-72
2022/10/30 00:06:08;;;;;;;23.52;10.48;;;15.20;99.90;;;;;;5025178;28;20087;-72
2022/10/30 00:08:33;;;;;;;21.08;10.50;;;15.00;99.90;;;;;;5026011;28;20491;-72
2022/10/30 00:11:11;;;;;;;25.35;11.30;;;15.00;99.90;;;;;;5024508;28;20553;-72
2022/10/30 00:13:37;;;;;;;23.90;10.20;;;15.00;99.90;;;;;;5020121;28;20045;-72
2022/10/30 00:16:06;;;;;;;23.65;11.27;;;15.00;99.90;;;;;;5023607;28;20045;-72
2022/10/30 00:18:33;;;;;;;21.98;10.30;;;14.90;99.90;;;;;;5020464;28;20494;-72
2022/10/30 00:21:05;;;;;;;27.65;10.40;;;14.90;99.90;;;;;;5007719;28;20187;-72
2022/10/30 00:23:31;;;;;;;22.95;10.80;;;14.90;99.90;;;;;;5007597;28;20049;-72
2022/10/30 00:26:02;;;;;;;18.65;10.45;;;14.90;99.90;;;;;;5023876;28;20536;-72
2022/10/30 00:28:28;;;;;;;;;;;14.90;99.90;;;;;;5035089;28;20037;-72
2022/10/30 00:30:57;;;;;;;18.90;9.57;;;14.90;99.90;;;;;;5024807;28;19948;-72
2022/10/30 00:33:22;;;;;;;18.85;9.90;;;14.90;99.90;;;;;;5023879;28;20044;-72
2022/10/30 00:35:48;;;;;;;26.25;10.85;;;14.80;99.90;;;;;;5025383;28;20418;-72
2022/10/30 00:38:14;;;;;;;27.20;10.65;;;14.80;99.90;;;;;;5023380;28;20144;-73
2022/10/30 00:40:40;;;;;;;21.77;11.00;;;14.80;99.90;;;;;;5023316;28;20041;-72
2022/10/30 00:43:29;;;;;;;20.27;10.48;;;14.80;99.90;;;;;;5027372;28;20037;-72
2022/10/30 00:46:04;;;;;;;20.52;9.98;;;14.80;99.90;;;;;;5020084;28;20049;-72
2022/10/30 00:48:31;;;;;;;28.98;11.48;;;14.80;99.90;;;;;;5024835;28;20045;-72
2022/10/30 00:51:00;;;;;;;21.85;11.00;;;14.80;99.90;;;;;;5021729;28;20353;-72
2022/10/30 00:53:26;;;;;;;33.90;11.70;;;14.80;99.90;;;;;;5024376;28;20045;-72
2022/10/30 00:55:57;;;;;;;24.42;10.70;;;14.80;99.90;;;;;;5022494;28;20052;-72
2022/10/30 00:58:29;;;;;;;28.02;10.35;;;14.70;99.90;;;;;;5026393;28;20522;-72
2022/10/30 01:00:58;;;;;;;22.67;10.77;;;14.70;99.90;;;;;;5023076;28;20451;-72
2022/10/30 01:03:25;;;;;;;29.23;9.90;;;14.70;99.90;;;;;;5021362;28;20441;-72
2022/10/30 01:05:55;;;;;;;26.58;11.40;;;14.70;99.90;;;;;;5023791;28;20507;-72
2022/10/30 01:08:21;;;;;;;23.10;10.40;;;14.70;99.90;;;;;;5023140;28;20037;-72
2022/10/30 01:10:48;;;;;;;23.40;10.65;;;14.70;99.90;;;;;;5024466;28;20057;-72
2022/10/30 01:13:14;;;;;;;21.65;11.07;;;14.60;99.90;;;;;;5020843;28;20033;-72
2022/10/30 01:16:07;;;;;;;24.55;11.77;;;14.60;99.90;;;;;;5008319;28;20050;-72
2022/10/30 01:19:09;;;;;;;19.58;10.70;;;14.60;99.90;;;;;;5018999;28;20427;-72
2022/10/30 01:22:02;;;;;;;18.58;9.77;;;14.60;99.90;;;;;;5025746;28;20037;-72
2022/10/30 01:24:43;;;;;;;26.90;10.82;;;14.60;99.90;;;;;;5024323;28;20033;-72
2022/10/30 01:27:34;;;;;;;22.20;9.80;;;14.60;99.90;;;;;;5019204;28;20045;-72
2022/10/30 01:30:15;;;;;;;23.05;12.50;;;14.60;99.90;;;;;;5006755;28;20054;-72
2022/10/30 01:32:44;;;;;;;;;;;14.50;99.90;;;;;;5024281;28;20061;-72
2022/10/30 01:35:26;;;;;;;23.48;9.93;;;14.50;99.90;;;;;;5009240;28;20023;-72
2022/10/30 01:38:30;;;;;;;26.10;11.30;;;14.50;99.90;;;;;;5005103;28;20076;-72
2022/10/30 01:40:56;;;;;;;22.83;10.77;;;14.50;99.90;;;;;;5020082;28;20056;-72
2022/10/30 01:43:22;;;;;;;24.48;11.57;;;14.50;99.90;;;;;;5025159;28;20041;-72
2022/10/30 01:46:16;;;;;;;22.45;10.80;;;14.50;99.90;;;;;;5022313;28;20507;-72
2022/10/30 01:49:08;;;;;;;21.10;9.82;;;14.50;99.90;;;;;;5024923;28;20053;-72
2022/10/30 01:51:48;;;;;;;25.02;10.35;;;14.50;99.90;;;;;;5023239;28;20048;-72
2022/10/30 01:54:56;;;;;;;21.45;10.30;;;14.50;99.90;;;;;;5021670;28;20045;-72
2022/10/30 01:58:21;;;;;;;23.20;10.32;;;14.40;99.90;;;;;;5012054;28;20148;-72
2022/10/30 02:00:51;;;;;;;19.77;10.43;;;14.40;99.90;;;;;;5017987;28;20627;-73
2022/10/30 02:03:18;;;;;;;18.83;10.10;;;14.40;99.90;;;;;;4996260;28;20052;-73
2022/10/30 02:05:49;;;;;;;20.88;9.98;;;14.40;99.90;;;;;;5014637;28;20053;-73
2022/10/30 02:08:15;;;;;;;23.90;10.88;;;14.40;99.90;;;;;;5012132;28;20068;-73
2022/10/30 02:10:43;;;;;;;20.63;10.25;;;14.40;99.90;;;;;;5019641;28;20041;-73
2022/10/30 02:13:09;;;;;;;19.83;10.07;;;14.40;99.90;;;;;;5021414;28;20128;-73
2022/10/30 02:15:35;;;;;;;19.60;10.55;;;14.40;99.90;;;;;;5012917;28;20589;-73
2022/10/30 02:18:01;;;;;;;18.65;10.73;;;14.40;99.90;;;;;;5042460;28;20057;-73
2022/10/30 02:20:27;;;;;;;20.98;10.73;;;14.30;99.90;;;;;;5019287;28;20511;-72
2022/10/30 02:22:53;;;;;;;20.48;9.68;;;14.30;99.90;;;;;;5023156;28;20079;-73
2022/10/30 02:25:19;;;;;;;22.98;10.30;;;14.30;99.90;;;;;;5023037;28;20037;-73
2022/10/30 02:27:44;;;;;;;21.67;10.45;;;14.30;99.90;;;;;;5018929;28;20037;-73
2022/10/30 02:30:11;;;;;;;22.58;10.77;;;14.30;99.90;;;;;;5024932;28;20136;-72
2022/10/30 02:32:37;;;;;;;23.83;10.95;;;14.30;99.90;;;;;;5012907;28;20057;-73
2022/10/30 02:35:04;;;;;;;22.10;10.18;;;14.30;99.90;;;;;;5024397;28;20046;-72
2022/10/30 02:37:31;;;;;;;23.60;10.32;;;14.30;99.90;;;;;;5015202;28;20049;-72
2022/10/30 02:39:57;;;;;;;19.55;10.80;;;14.30;99.90;;;;;;5045703;28;20375;-73
2022/10/30 02:42:24;;;;;;;22.23;11.10;;;14.30;99.90;;;;;;5021158;28;20049;-73
2022/10/30 02:44:49;;;;;;;26.58;11.23;;;14.30;99.90;;;;;;5021529;28;20054;-72
2022/10/30 02:47:15;;;;;;;22.42;10.77;;;14.30;99.90;;;;;;5024658;28;20052;-72
2022/10/30 02:49:41;;;;;;;21.02;11.20;;;14.20;99.90;;;;;;5015554;28;20045;-72
2022/10/30 02:52:07;;;;;;;24.10;10.60;;;14.20;99.90;;;;;;5030084;28;20045;-72
2022/10/30 02:54:34;;;;;;;28.10;10.98;;;14.20;99.90;;;;;;5014471;28;20053;-72
2022/10/30 02:57:00;;;;;;;24.10;10.32;;;14.20;99.90;;;;;;5028572;28;20037;-72
2022/10/30 02:59:25;;;;;;;20.35;10.85;;;14.20;99.90;;;;;;5017934;28;20049;-72
2022/10/30 03:01:51;;;;;;;26.73;11.48;;;14.20;99.90;;;;;;5023330;28;20045;-72
2022/10/30 03:04:17;;;;;;;19.80;10.77;;;14.20;99.90;;;;;;5004118;28;20110;-72
2022/10/30 03:06:43;;;;;;;25.10;11.13;;;14.20;99.90;;;;;;5020577;28;20056;-72
2022/10/30 03:09:09;;;;;;;23.15;10.65;;;14.10;99.90;;;;;;5023350;28;20042;-72
2022/10/30 03:11:35;;;;;;;26.85;10.32;;;14.10;99.90;;;;;;5014838;28;20048;-72
2022/10/30 03:14:00;;;;;;;22.75;11.07;;;14.20;99.90;;;;;;5026847;28;20077;-72
2022/10/30 03:16:30;;;;;;;26.02;10.43;;;14.10;99.90;;;;;;5015099;28;20512;-72
2022/10/30 03:18:57;;;;;;;28.35;11.23;;;14.20;99.90;;;;;;5008593;28;20049;-72
2022/10/30 03:21:25;;;;;;;22.40;10.73;;;14.10;99.90;;;;;;5021675;28;20041;-72
2022/10/30 03:23:51;;;;;;;23.58;12.30;;;14.10;99.90;;;;;;5030471;28;20069;-73
2022/10/30 03:26:18;;;;;;;22.35;11.15;;;14.10;99.90;;;;;;4997030;28;20045;-72
2022/10/30 03:28:44;;;;;;;24.60;10.57;;;14.10;99.90;;;;;;5023890;28;20103;-72
2022/10/30 03:31:12;;;;;;;21.77;10.57;;;14.10;99.90;;;;;;4986810;28;20577;-72
2022/10/30 03:33:38;;;;;;;26.48;10.65;;;14.10;99.90;;;;;;5004751;28;20929;-72
2022/10/30 03:36:05;;;;;;;21.17;11.20;;;14.00;99.90;;;;;;5003834;28;20061;-72
2022/10/30 03:38:31;;;;;;;25.13;10.77;;;14.00;99.90;;;;;;5015960;28;20175;-72
2022/10/30 03:40:57;;;;;;;27.92;11.52;;;14.00;99.90;;;;;;4999013;28;20140;-72
2022/10/30 03:43:23;;;;;;;22.92;10.55;;;14.00;99.90;;;;;;5021103;28;20048;-72
2022/10/30 03:45:51;;;;;;;24.15;10.82;;;14.00;99.90;;;;;;5009306;28;20073;-72
2022/10/30 03:48:19;;;;;;;20.88;10.73;;;14.00;99.90;;;;;;5026221;28;20186;-72
2022/10/30 03:50:45;;;;;;;27.05;11.88;;;14.00;99.90;;;;;;4993826;28;20053;-72
2022/10/30 03:53:12;;;;;;;18.98;10.35;;;14.00;99.90;;;;;;5006858;28;20033;-72
2022/10/30 03:55:38;;;;;;;25.00;11.48;;;14.00;99.90;;;;;;5025255;28;20052;-72
2022/10/30 03:58:05;;;;;;;23.40;12.13;;;13.90;99.90;;;;;;5022004;28;20320;-72
2022/10/30 04:00:32;;;;;;;25.63;11.55;;;13.90;99.90;;;;;;5022475;28;20045;-72
2022/10/30 04:02:58;;;;;;;27.08;11.38;;;13.90;99.90;;;;;;5025518;28;20044;-72
2022/10/30 04:05:25;;;;;;;21.45;11.52;;;13.90;99.90;;;;;;5022267;28;20033;-72
2022/10/30 04:07:59;;;;;;;23.23;12.00;;;13.90;99.90;;;;;;5024376;28;20045;-72
2022/10/30 04:10:25;;;;;;;21.48;12.25;;;13.90;99.90;;;;;;5025566;28;20045;-72
2022/10/30 04:12:51;;;;;;;24.73;12.18;;;13.90;99.90;;;;;;5026501;28;20511;-72
2022/10/30 04:15:18;;;;;;;20.38;10.55;;;14.10;99.90;;;;;;5023039;28;20045;-72
2022/10/30 04:17:50;;;;;;;26.98;12.07;;;13.80;99.90;;;;;;5026013;28;20128;-72
2022/10/30 04:20:18;;;;;;;24.45;11.82;;;13.90;99.90;;;;;;5024244;28;20720;-72
2022/10/30 04:22:44;;;;;;;22.63;10.55;;;13.80;99.90;;;;;;5027247;28;20047;-72
2022/10/30 04:25:09;;;;;;;29.23;11.43;;;13.80;99.90;;;;;;5024298;28;20045;-72
2022/10/30 04:27:42;;;;;;;21.73;12.00;;;13.80;99.90;;;;;;5024632;28;20045;-72
2022/10/30 04:30:10;;;;;;;25.80;12.07;;;13.80;99.90;;;;;;5023952;28;20042;-72
2022/10/30 04:32:44;;;;;;;22.55;11.35;;;13.80;99.90;;;;;;5007021;28;20056;-72
2022/10/30 04:35:09;;;;;;;24.42;12.30;;;13.80;99.90;;;;;;5024603;28;20514;-72
2022/10/30 04:37:35;;;;;;;25.00;12.45;;;13.80;99.90;;;;;;5026475;28;20048;-72
2022/10/30 04:40:01;;;;;;;24.23;11.35;;;13.80;99.90;;;;;;5027011;28;20087;-72
2022/10/30 04:42:26;;;;;;;27.23;11.38;;;13.70;99.90;;;;;;5025857;28;20033;-72
2022/10/30 04:44:52;;;;;;;20.20;11.32;;;14.00;99.90;;;;;;5008448;28;20395;-72
2022/10/30 04:47:18;;;;;;;19.10;10.73;;;13.70;99.90;;;;;;5022301;28;20033;-73
2022/10/30 04:49:43;;;;;;;27.08;11.68;;;13.70;99.90;;;;;;5019217;28;20099;-72
2022/10/30 04:52:09;;;;;;;30.35;12.88;;;13.70;99.90;;;;;;5025540;28;21008;-73
2022/10/30 04:54:35;;;;;;;23.17;12.70;;;13.70;99.90;;;;;;5024398;28;20072;-72
2022/10/30 04:57:00;;;;;;;29.67;12.30;;;13.70;99.90;;;;;;5023594;28;20049;-73
2022/10/30 04:59:26;;;;;;;27.20;12.32;;;13.70;99.90;;;;;;5021807;28;20048;-73
2022/10/30 05:01:52;;;;;;;22.20;12.13;;;13.70;99.90;;;;;;5022007;28;20098;-72
2022/10/30 05:04:17;;;;;;;27.63;12.82;;;13.60;99.90;;;;;;5022633;28;20045;-72
2022/10/30 05:06:43;;;;;;;21.23;11.98;;;13.60;99.90;;;;;;5024427;28;20064;-72
2022/10/30 05:09:09;;;;;;;24.75;11.63;;;13.60;99.90;;;;;;5039628;28;20107;-72
2022/10/30 05:11:35;;;;;;;26.50;12.32;;;13.60;99.90;;;;;;5025459;28;20068;-73
2022/10/30 05:14:00;;;;;;;26.65;12.55;;;13.70;99.90;;;;;;5024785;28;20414;-72
2022/10/30 05:16:26;;;;;;;23.33;12.55;;;13.60;99.90;;;;;;5023030;28;20398;-72
2022/10/30 05:18:51;;;;;;;28.25;12.40;;;13.60;99.90;;;;;;5020449;28;20073;-72
2022/10/30 05:21:17;;;;;;;22.85;12.20;;;13.60;99.90;;;;;;5023570;28;20376;-72
2022/10/30 05:23:43;;;;;;;24.92;12.82;;;13.70;99.90;;;;;;5022426;28;20413;-72
2022/10/30 05:26:08;;;;;;;24.30;12.00;;;13.50;99.90;;;;;;5026096;28;20045;-72
2022/10/30 05:28:34;;;;;;;26.25;11.95;;;13.50;99.90;;;;;;5025650;28;21866;-72
2022/10/30 05:31:00;;;;;;;25.52;12.20;;;13.50;99.90;;;;;;5025216;28;20057;-72
2022/10/30 05:33:25;;;;;;;23.00;11.52;;;13.50;99.90;;;;;;5005756;28;20408;-73
2022/10/30 05:35:51;;;;;;;26.10;11.93;;;13.40;99.90;;;;;;5028181;28;20402;-73
2022/10/30 05:38:17;;;;;;;25.50;12.00;;;13.40;99.90;;;;;;5026889;28;20068;-72
2022/10/30 05:40:45;;;;;;;24.25;12.63;;;13.40;99.90;;;;;;4998817;28;20171;-73
2022/10/30 05:43:11;;;;;;;31.23;12.18;;;13.40;99.90;;;;;;5014763;28;20073;-73
2022/10/30 05:45:36;;;;;;;23.23;11.50;;;13.40;99.90;;;;;;5019903;28;20100;-72
2022/10/30 05:48:04;;;;;;;27.15;12.70;;;13.40;99.90;;;;;;5025301;28;20046;-72
2022/10/30 05:50:30;;;;;;;21.58;12.25;;;13.40;99.90;;;;;;5025756;28;20034;-72
2022/10/30 05:53:01;;;;;;;27.00;12.32;;;13.40;99.90;;;;;;5002895;28;20386;-72
2022/10/30 05:55:28;;;;;;;;;;;13.30;99.90;;;;;;5021454;28;20049;-73
2022/10/30 05:58:01;;;;;;;28.98;11.70;;;13.30;99.90;;;;;;5017513;28;19928;-72
2022/10/30 06:00:29;;;;;;;28.40;12.10;;;13.30;99.90;;;;;;5016315;28;20396;-72
2022/10/30 06:02:59;;;;;;;22.48;11.95;;;13.30;99.90;;;;;;5023809;28;20045;-72
2022/10/30 06:05:25;;;;;;;28.02;12.40;;;13.30;99.90;;;;;;5022162;28;20083;-72
2022/10/30 06:07:55;;;;;;;25.27;12.35;;;13.30;99.90;;;;;;5023825;28;20073;-73
2022/10/30 06:10:21;;;;;;;23.92;11.90;;;13.40;99.90;;;;;;5023761;28;20121;-71
2022/10/30 06:12:58;;;;;;;25.17;12.75;;;13.20;99.90;;;;;;5024078;28;20056;-72
2022/10/30 06:15:24;;;;;;;23.70;12.68;;;13.20;99.90;;;;;;5028851;28;20053;-72
2022/10/30 06:17:50;;;;;;;28.30;13.00;;;13.20;99.90;;;;;;5025699;28;20171;-72
2022/10/30 06:20:17;;;;;;;27.10;12.63;;;13.10;99.90;;;;;;5018219;28;20537;-72
2022/10/30 06:23:06;;;;;;;27.95;12.18;;;13.00;99.90;;;;;;5024717;28;20041;-72
2022/10/30 06:25:34;;;;;;;25.77;11.90;;;13.10;99.90;;;;;;5025200;28;20083;-72
2022/10/30 06:28:00;;;;;;;25.73;12.98;;;13.10;99.90;;;;;;5025199;28;20041;-72
2022/10/30 06:30:27;;;;;;;26.10;13.00;;;13.10;99.90;;;;;;5009505;28;20053;-72
2022/10/30 06:32:57;;;;;;;26.80;12.57;;;13.10;99.90;;;;;;5020622;28;20093;-72
2022/10/30 06:35:23;;;;;;;22.50;12.63;;;13.00;99.90;;;;;;4999418;28;20055;-72
2022/10/30 06:37:49;;;;;;;24.55;12.88;;;13.00;99.90;;;;;;5015499;28;20045;-72
2022/10/30 06:40:15;;;;;;;30.77;13.63;;;13.00;99.90;;;;;;5027598;28;20542;-72
2022/10/30 06:42:42;;;;;;;23.30;12.32;;;13.00;99.90;;;;;;5020466;28;20045;-72
2022/10/30 06:45:09;;;;;;;24.58;11.80;;;13.00;99.90;;;;;;5023834;28;20045;-72
2022/10/30 06:47:35;;;;;;;22.55;11.75;;;13.00;99.90;;;;;;5019209;28;20136;-72
2022/10/30 06:50:01;;;;;;;22.58;12.35;;;13.00;99.90;;;;;;5008912;28;20510;-74
2022/10/30 06:52:26;;;;;;;24.88;12.38;;;13.00;99.90;;;;;;5020663;28;20037;-74
2022/10/30 06:54:52;;;;;;;21.73;12.32;;;13.00;99.90;;;;;;5034530;28;20052;-74
2022/10/30 06:57:18;;;;;;;26.27;11.95;;;13.00;99.90;;;;;;5020542;28;20041;-74
2022/10/30 06:59:43;;;;;;;24.90;12.60;;;13.00;99.90;;;;;;5020329;28;20045;-76
2022/10/30 07:02:10;;;;;;;25.88;13.77;;;13.00;99.90;;;;;;5012326;28;20068;-76
2022/10/30 07:04:35;;;;;;;28.20;14.05;;;13.00;99.90;;;;;;4999659;28;20084;-77
2022/10/30 07:07:02;;;;;;;21.17;12.60;;;13.00;99.90;;;;;;5021416;28;20053;-76
2022/10/30 07:09:28;;;;;;;29.85;12.88;;;12.90;99.90;;;;;;5023599;28;20046;-76
2022/10/30 07:11:54;;;;;;;31.75;13.55;;;13.00;99.90;;;;;;5016502;28;20048;-76
2022/10/30 07:14:20;;;;;;;27.02;13.00;;;13.00;99.90;;;;;;5023539;28;20044;-76
2022/10/30 07:16:46;;;;;;;24.95;11.98;;;13.00;99.90;;;;;;5017984;28;20060;-76
2022/10/30 07:19:12;;;;;;;31.27;13.02;;;13.00;99.90;;;;;;5025178;28;20045;-76
2022/10/30 07:21:38;;;;;;;25.58;12.10;;;13.10;99.90;;;;;;5025114;28;20411;-76
2022/10/30 07:24:04;;;;;;;24.42;13.07;;;13.10;99.90;;;;;;5021253;28;20063;-76
2022/10/30 07:26:36;;;;;;;24.48;12.05;;;13.10;99.90;;;;;;5018264;28;20101;-76
2022/10/30 07:29:03;;;;;;;24.25;12.05;;;13.10;99.90;;;;;;5019321;28;20045;-77
2022/10/30 07:31:29;;;;;;;22.58;11.90;;;13.10;99.90;;;;;;5013739;28;20056;-76
2022/10/30 07:33:55;;;;;;;21.58;11.75;;;13.10;99.90;;;;;;5006592;28;21732;-76
2022/10/30 07:36:21;;;;;;;27.83;12.32;;;13.20;99.90;;;;;;5020696;28;20426;-77
2022/10/30 07:38:48;;;;;;;23.95;12.07;;;13.20;99.90;;;;;;5017982;28;20128;-77
2022/10/30 07:41:16;;;;;;;21.75;12.10;;;13.20;99.90;;;;;;5020356;28;20514;-76
2022/10/30 07:43:41;;;;;;;24.70;12.90;;;13.20;99.90;;;;;;5018747;28;20033;-77
2022/10/30 07:46:07;;;;;;;27.67;12.52;;;13.40;99.90;;;;;;5002983;28;20088;-77
2022/10/30 07:48:33;;;;;;;26.35;12.18;;;13.30;99.90;;;;;;5006817;28;20030;-76
2022/10/30 07:50:58;;;;;;;22.95;12.98;;;13.30;99.90;;;;;;5018854;28;20060;-77
2022/10/30 07:53:24;;;;;;;23.75;11.73;;;13.40;99.90;;;;;;5008937;28;20042;-76
2022/10/30 07:55:50;;;;;;;23.40;12.77;;;13.40;99.90;;;;;;5016529;28;20045;-77
2022/10/30 07:58:16;;;;;;;26.50;12.02;;;13.40;99.90;;;;;;5015772;28;20115;-76
2022/10/30 08:00:41;;;;;;;24.40;12.10;;;13.50;99.90;;;;;;5004002;28;20054;-77
2022/10/30 08:03:08;;;;;;;25.13;12.27;;;13.50;99.90;;;;;;5007113;28;20049;-77
2022/10/30 08:05:33;;;;;;;25.70;12.00;;;13.50;99.90;;;;;;5011740;28;20057;-76
2022/10/30 08:07:59;;;;;;;25.55;12.20;;;13.60;99.90;;;;;;5019359;28;20046;-76
2022/10/30 08:10:25;;;;;;;23.70;11.98;;;13.60;99.90;;;;;;5017433;28;20037;-76
2022/10/30 08:12:51;;;;;;;23.38;11.05;;;13.70;99.90;;;;;;5044524;28;20056;-76
2022/10/30 08:15:16;;;;;;;23.17;11.93;;;13.70;99.90;;;;;;5013956;28;20046;-76
2022/10/30 08:17:47;;;;;;;25.45;12.18;;;13.80;99.90;;;;;;5000811;28;20042;-76
2022/10/30 08:20:14;;;;;;;26.23;11.93;;;13.80;99.90;;;;;;5007600;28;20057;-76
2022/10/30 08:22:50;;;;;;;27.50;11.70;;;13.80;99.90;;;;;;5017287;28;20203;-76
2022/10/30 08:25:18;;;;;;;24.75;11.80;;;13.90;99.90;;;;;;4998634;28;20223;-76
2022/10/30 08:27:57;;;;;;;24.88;11.32;;;14.00;99.90;;;;;;5012852;28;20135;-76
2022/10/30 08:30:24;;;;;;;25.13;12.50;;;14.00;99.90;;;;;;5017292;28;20053;-76
2022/10/30 08:32:50;;;;;;;25.88;11.45;;;14.20;99.90;;;;;;5014016;28;20037;-76
2022/10/30 08:35:16;;;;;;;26.05;11.63;;;14.10;99.90;;;;;;5016082;28;20386;-77
2022/10/30 08:37:42;;;;;;;27.50;11.65;;;14.20;99.90;;;;;;5026272;28;20052;-76
2022/10/30 08:40:09;;;;;;;28.55;10.90;;;14.20;99.90;;;;;;4996528;28;20044;-76
2022/10/30 08:42:35;;;;;;;20.05;11.40;;;14.30;99.90;;;;;;5008822;28;20069;-76
2022/10/30 08:45:01;;;;;;;21.65;11.38;;;14.30;99.90;;;;;;5012235;28;20128;-76
2022/10/30 08:47:27;;;;;;;21.55;11.18;;;14.30;99.90;;;;;;5019924;28;20532;-72
2022/10/30 08:49:53;;;;;;;23.25;11.70;;;14.40;99.90;;;;;;5001396;28;20053;-72
2022/10/30 08:52:18;;;;;;;21.23;12.20;;;14.40;99.90;;;;;;4997147;28;20057;-72
2022/10/30 08:54:44;;;;;;;23.83;11.82;;;14.40;99.90;;;;;;5009277;28;20045;-72
2022/10/30 08:57:10;;;;;;;28.00;11.50;;;14.50;99.90;;;;;;5014009;28;20157;-72
2022/10/30 08:59:35;;;;;;;24.85;12.25;;;14.60;99.90;;;;;;5012693;28;20123;-72
2022/10/30 09:02:01;;;;;;;26.98;11.98;;;14.60;99.90;;;;;;5025241;28;20542;-72
2022/10/30 09:04:27;;;;;;;28.15;12.70;;;14.70;99.90;;;;;;5017746;28;20288;-71
2022/10/30 09:06:53;;;;;;;23.48;12.23;;;14.70;99.90;;;;;;5021736;28;20098;-72
2022/10/30 09:09:18;;;;;;;25.38;11.18;;;14.80;99.90;;;;;;5019499;28;20093;-73
2022/10/30 09:11:47;;;;;;;24.42;11.35;;;14.90;99.90;;;;;;5008555;28;20159;-72
2022/10/30 09:14:13;;;;;;;26.00;11.65;;;14.90;99.90;;;;;;5018272;28;20168;-72
2022/10/30 09:16:39;;;;;;;25.95;12.80;;;15.00;99.90;;;;;;5012436;28;20132;-70
2022/10/30 09:19:04;;;;;;;23.55;11.25;;;15.00;99.90;;;;;;5020018;28;20057;-71
2022/10/30 09:21:30;;;;;;;24.95;11.95;;;15.10;99.90;;;;;;5007962;28;20041;-71
2022/10/30 09:23:56;;;;;;;22.67;11.55;;;15.10;99.90;;;;;;5014596;28;20049;-73
2022/10/30 09:26:21;;;;;;;21.35;11.75;;;15.20;99.90;;;;;;5006933;28;20046;-73
2022/10/30 09:28:48;;;;;;;27.80;12.60;;;15.20;99.90;;;;;;5003640;28;20148;-71
2022/10/30 09:31:13;;;;;;;30.85;12.48;;;15.30;99.90;;;;;;5034761;28;20081;-71
2022/10/30 09:33:39;;;;;;;27.05;12.27;;;15.40;99.90;;;;;;4985632;28;20160;-71
2022/10/30 09:36:05;;;;;;;25.63;11.52;;;15.40;99.90;;;;;;4987874;28;20050;-71
2022/10/30 09:38:31;;;;;;;21.85;11.85;;;15.40;99.90;;;;;;5005317;28;20056;-71
2022/10/30 09:41:15;;;;;;;25.60;12.45;;;15.50;99.90;;;;;;5003495;28;20041;-72
2022/10/30 09:43:54;;;;;;;22.77;11.82;;;15.60;99.90;;;;;;5001609;28;20869;-72
2022/10/30 09:46:41;;;;;;;24.55;12.25;;;15.60;99.90;;;;;;5016261;28;20033;-72
2022/10/30 09:49:44;;;;;;;25.00;10.95;;;15.70;99.90;;;;;;4998703;28;20056;-72
2022/10/30 09:52:25;;;;;;;21.77;12.38;;;15.70;99.90;;;;;;5003401;28;20676;-72
2022/10/30 09:55:12;;;;;;;25.70;12.50;;;15.70;99.90;;;;;;5004912;28;20056;-72
2022/10/30 09:57:41;;;;;;;27.63;12.27;;;15.80;99.90;;;;;;4999618;28;20060;-72
2022/10/30 10:00:10;;;;;;;27.55;13.40;;;15.80;99.90;;;;;;4998190;28;20042;-71
2022/10/30 10:02:48;;;;;;;23.25;12.88;;;15.80;99.90;;;;;;5011147;28;20041;-71
2022/10/30 10:05:23;;;;;;;29.13;12.32;;;15.80;99.90;;;;;;5002963;28;20513;-73
2022/10/30 10:07:54;;;;;;;26.23;12.80;;;15.90;99.90;;;;;;5007724;28;20064;-72
2022/10/30 10:10:44;;;;;;;28.65;13.27;;;15.90;99.90;;;;;;5013194;28;20462;-70
2022/10/30 10:13:20;;;;;;;26.60;12.95;;;16.00;99.90;;;;;;5009549;28;20041;-71
2022/10/30 10:15:50;;;;;;;24.65;12.20;;;16.00;99.90;;;;;;5010626;28;22018;-72
2022/10/30 10:18:26;;;;;;;25.15;13.00;;;16.10;99.90;;;;;;5007529;28;20049;-72
2022/10/30 10:20:58;;;;;;;30.17;13.70;;;16.20;99.90;;;;;;5018646;28;20366;-74
2022/10/30 10:23:32;;;;;;;;;;;16.20;99.90;;;;;;5015760;28;20120;-73
2022/10/30 10:26:06;;;;;;;24.75;12.27;;;16.30;99.90;;;;;;5012547;28;19925;-72
2022/10/30 10:28:52;;;;;;;20.88;11.48;;;16.40;99.90;;;;;;5013659;28;20046;-74
2022/10/30 10:31:32;;;;;;;22.65;11.95;;;16.50;99.90;;;;;;5012865;28;20129;-74
2022/10/30 10:34:13;;;;;;;25.20;12.27;;;16.60;99.90;;;;;;5011888;28;20104;-74
2022/10/30 10:36:52;;;;;;;27.45;12.20;;;16.60;99.90;;;;;;5018842;28;20045;-74
2022/10/30 10:39:27;;;;;;;23.58;11.25;;;16.70;99.90;;;;;;5020429;28;20049;-74
2022/10/30 10:41:59;;;;;;;25.38;12.23;;;16.80;99.90;;;;;;5033000;28;20048;-75
2022/10/30 10:44:35;;;;;;;26.95;11.82;;;16.80;99.90;;;;;;5020721;28;20033;-74
2022/10/30 10:47:29;;;;;;;23.55;11.60;;;16.90;99.90;;;;;;5016326;28;20045;-74
2022/10/30 10:50:24;;;;;;;23.35;10.70;;;17.00;99.90;;;;;;5017343;28;20037;-73
2022/10/30 10:52:59;;;;;;;22.55;9.73;;;17.00;99.90;;;;;;5006841;28;20045;-74
2022/10/30 10:55:35;;;;;;;23.60;10.70;;;17.10;99.90;;;;;;5015311;28;20446;-73
2022/10/30 10:58:12;;;;;;;20.05;9.98;;;17.10;99.90;;;;;;5014769;28;20415;-73
2022/10/30 11:00:39;;;;;;;22.08;10.57;;;17.20;99.90;;;;;;5010526;28;20049;-73
2022/10/30 11:03:11;;;;;;;22.98;10.90;;;17.20;99.90;;;;;;5011253;28;20984;-73
2022/10/30 11:06:25;;;;;;;21.33;10.32;;;17.20;99.90;;;;;;5013873;28;20034;-73
2022/10/30 11:08:53;;;;;;;21.55;11.05;;;17.30;99.90;;;;;;4998657;28;20034;-74
2022/10/30 11:11:18;;;;;;;24.40;10.38;;;17.30;99.90;;;;;;5005318;28;20054;-73
2022/10/30 11:13:44;;;;;;;21.73;10.63;;;17.30;99.90;;;;;;5009501;28;20050;-74
2022/10/30 11:16:36;;;;;;;24.13;10.05;;;17.40;99.90;;;;;;5010639;28;20761;-74
2022/10/30 11:19:06;;;;;;;18.13;9.70;;;17.50;99.90;;;;;;5003675;28;20582;-73
2022/10/30 11:21:38;;;;;;;18.52;10.18;;;17.50;99.90;;;;;;5012001;28;20049;-73
2022/10/30 11:24:34;;;;;;;25.85;11.23;;;17.60;99.90;;;;;;5019259;28;20107;-74
2022/10/30 11:27:22;;;;;;;25.15;11.02;;;17.70;99.90;;;;;;5006798;28;20917;-74
2022/10/30 11:29:58;;;;;;;24.67;11.30;;;17.80;99.90;;;;;;5009317;28;20038;-75
2022/10/30 11:32:30;;;;;;;27.80;10.77;;;17.90;99.90;;;;;;5011999;28;20072;-73
2022/10/30 11:35:11;;;;;;;20.65;10.07;;;17.90;99.90;;;;;;5014715;28;20072;-74
2022/10/30 11:37:40;;;;;;;18.83;10.00;;;18.00;99.90;;;;;;5016267;28;20053;-73
2022/10/30 11:40:15;;;;;;;22.02;9.60;;;18.00;99.90;;;;;;5031813;28;20099;-74
2022/10/30 11:42:42;;;;;;;22.40;10.15;;;18.00;99.90;;;;;;5040469;28;20065;-74
2022/10/30 11:45:42;;;;;;;21.92;9.30;;;18.00;99.90;;;;;;5013139;28;20103;-74
2022/10/30 11:48:17;;;;;;;23.13;9.80;;;18.00;99.90;;;;;;5006234;28;20054;-72
2022/10/30 11:50:48;;;;;;;24.20;9.82;;;18.10;99.90;;;;;;5013284;28;20123;-73
2022/10/30 11:53:38;;;;;;;19.55;9.95;;;18.10;99.90;;;;;;5014389;28;20375;-73
2022/10/30 11:56:18;;;;;;;22.98;9.65;;;18.20;99.90;;;;;;5017923;28;20057;-73
2022/10/30 11:58:48;;;;;;;21.77;9.02;;;18.20;99.90;;;;;;5042257;28;20049;-73
2022/10/30 12:01:25;;;;;;;16.67;8.65;;;18.30;99.90;;;;;;5029219;28;20060;-73
2022/10/30 12:03:53;;;;;;;20.38;8.98;;;18.30;99.90;;;;;;5005967;28;20037;-73
2022/10/30 12:06:21;;;;;;;18.83;8.95;;;18.40;99.90;;;;;;5016127;28;20126;-72
2022/10/30 12:09:11;;;;;;;20.13;7.65;;;18.40;99.90;;;;;;5019896;28;20048;-73
2022/10/30 12:11:42;;;;;;;20.67;8.13;;;18.40;99.90;;;;;;5019119;28;20099;-72
2022/10/30 12:14:16;;;;;;;25.03;9.60;;;18.40;99.90;;;;;;5018017;28;20076;-72
2022/10/30 12:16:54;;;;;;;24.55;7.93;;;18.40;99.90;;;;;;5011247;28;20056;-72
2022/10/30 12:19:23;;;;;;;17.25;7.10;;;18.40;99.90;;;;;;5011528;28;20054;-73
2022/10/30 12:21:53;;;;;;;16.30;7.68;;;18.40;99.90;;;;;;5009832;28;20454;-73
2022/10/30 12:24:28;;;;;;;20.25;7.13;;;18.40;99.90;;;;;;5011149;28;20050;-73
2022/10/30 12:26:55;;;;;;;22.10;8.13;;;18.40;99.90;;;;;;5020733;28;20116;-72
2022/10/30 12:29:26;;;;;;;18.63;7.85;;;18.40;99.90;;;;;;5023820;28;20045;-73
2022/10/30 12:31:57;;;;;;;22.88;8.18;;;18.40;99.90;;;;;;5016461;28;20304;-73
2022/10/30 12:34:39;;;;;;;21.90;9.07;;;18.40;99.90;;;;;;5021556;28;20054;-73
2022/10/30 12:37:22;;;;;;;22.05;7.45;;;18.40;99.90;;;;;;5021420;28;20048;-73
2022/10/30 12:39:59;;;;;;;21.75;8.60;;;18.40;99.90;;;;;;5017611;28;20120;-73
2022/10/30 12:42:26;;;;;;;23.40;7.93;;;18.40;99.90;;;;;;5018400;28;20067;-73
2022/10/30 12:45:16;;;;;;;17.75;7.95;;;18.40;99.90;;;;;;5013586;28;20201;-73
2022/10/30 12:48:00;;;;;;;19.33;8.40;;;18.40;99.90;;;;;;5012781;28;20514;-73